sensor_id;sensor_type;location;lat;lon;timestamp;P1;durP1;ratioP1;P2;durP2;ratioP2
46589;SDS011;32313;48.722;9.362;2022-07-01T00:02:20;2.83;;;2.60;;
46589;SDS011;32313;48.722;9.362;2022-07-01T00:04:45;3.03;;;2.73;;
46589;SDS011;32313;48.722;9.362;2022-07-01T00:07:30;5.10;;;2.83;;
46589;SDS011;32313;48.722;9.362;2022-07-01T00:09:56;6.03;;;3.30;;
46589;SDS011;32313;48.722;9.362;2022-07-01T00:12:21;4.27;;;3.00;;
46589;SDS011;32313;48.722;9.362;2022-07-01T00:14:47;4.03;;;3.17;;
46589;SDS011;32313;48.722;9.362;2022-07-01T00:17:16;5.33;;;3.37;;
46589;SDS011;32313;48.722;9.362;2022-07-01T00:19:42;5.40;;;3.17;;
46589;SDS011;32313;48.722;9.362;2022-07-01T00:22:07;4.37;;;3.77;;
46589;SDS011;32313;48.722;9.362;2022-07-01T00:24:33;5.80;;;3.37;;
46589;SDS011;32313;48.722;9.362;2022-07-01T00:26:59;3.80;;;2.97;;
46589;SDS011;32313;48.722;9.362;2022-07-01T00:29:25;3.17;;;2.67;;
46589;SDS011;32313;48.722;9.362;2022-07-01T00:31:50;9.37;;;3.97;;
46589;SDS011;32313;48.722;9.362;2022-07-01T00:34:16;9.23;;;4.00;;
46589;SDS011;32313;48.722;9.362;2022-07-01T00:36:42;4.83;;;3.83;;
46589;SDS011;32313;48.722;9.362;2022-07-01T00:39:07;4.40;;;4.00;;
46589;SDS011;32313;48.722;9.362;2022-07-01T00:41:34;4.87;;;3.80;;
46589;SDS011;32313;48.722;9.362;2022-07-01T00:43:59;7.50;;;4.43;;
46589;SDS011;32313;48.722;9.362;2022-07-01T00:46:25;6.17;;;4.17;;
46589;SDS011;32313;48.722;9.362;2022-07-01T00:48:52;8.13;;;5.03;;
46589;SDS011;32313;48.722;9.362;2022-07-01T00:51:21;5.43;;;4.00;;
46589;SDS011;32313;48.722;9.362;2022-07-01T00:53:47;7.90;;;4.50;;
46589;SDS011;32313;48.722;9.362;2022-07-01T00:56:13;4.53;;;4.00;;
46589;SDS011;32313;48.722;9.362;2022-07-01T00:58:40;4.83;;;4.33;;
46589;SDS011;32313;48.722;9.362;2022-07-01T01:01:05;4.30;;;3.90;;
46589;SDS011;32313;48.722;9.362;2022-07-01T01:03:31;7.40;;;4.53;;
46589;SDS011;32313;48.722;9.362;2022-07-01T01:05:57;8.33;;;4.43;;
46589;SDS011;32313;48.722;9.362;2022-07-01T01:08:23;7.03;;;4.47;;
46589;SDS011;32313;48.722;9.362;2022-07-01T01:10:50;7.33;;;4.50;;
46589;SDS011;32313;48.722;9.362;2022-07-01T01:13:17;4.47;;;4.07;;
46589;SDS011;32313;48.722;9.362;2022-07-01T01:15:43;5.47;;;4.60;;
46589;SDS011;32313;48.722;9.362;2022-07-01T01:18:08;5.37;;;4.60;;
46589;SDS011;32313;48.722;9.362;2022-07-01T01:20:35;6.77;;;4.27;;
46589;SDS011;32313;48.722;9.362;2022-07-01T01:23:01;7.73;;;4.80;;
46589;SDS011;32313;48.722;9.362;2022-07-01T01:25:29;4.00;;;3.57;;
46589;SDS011;32313;48.722;9.362;2022-07-01T01:27:56;6.27;;;4.20;;
46589;SDS011;32313;48.722;9.362;2022-07-01T01:30:25;6.13;;;4.23;;
46589;SDS011;32313;48.722;9.362;2022-07-01T01:32:51;5.47;;;3.80;;
46589;SDS011;32313;48.722;9.362;2022-07-01T01:35:18;3.37;;;3.07;;
46589;SDS011;32313;48.722;9.362;2022-07-01T01:37:44;3.77;;;3.37;;
46589;SDS011;32313;48.722;9.362;2022-07-01T01:40:10;6.10;;;3.43;;
46589;SDS011;32313;48.722;9.362;2022-07-01T01:42:39;2.97;;;2.77;;
46589;SDS011;32313;48.722;9.362;2022-07-01T01:45:05;4.17;;;2.90;;
46589;SDS011;32313;48.722;9.362;2022-07-01T01:47:31;5.50;;;3.23;;
46589;SDS011;32313;48.722;9.362;2022-07-01T01:49:57;4.10;;;3.20;;
46589;SDS011;32313;48.722;9.362;2022-07-01T01:52:23;4.57;;;3.53;;
46589;SDS011;32313;48.722;9.362;2022-07-01T01:54:49;3.50;;;3.20;;
46589;SDS011;32313;48.722;9.362;2022-07-01T01:57:15;5.47;;;3.90;;
46589;SDS011;32313;48.722;9.362;2022-07-01T01:59:41;4.83;;;3.83;;
46589;SDS011;32313;48.722;9.362;2022-07-01T02:02:07;3.90;;;3.50;;
46589;SDS011;32313;48.722;9.362;2022-07-01T02:04:33;3.97;;;3.50;;
46589;SDS011;32313;48.722;9.362;2022-07-01T02:06:59;4.20;;;3.70;;
46589;SDS011;32313;48.722;9.362;2022-07-01T02:09:25;3.63;;;3.33;;
46589;SDS011;32313;48.722;9.362;2022-07-01T02:11:50;4.30;;;3.70;;
46589;SDS011;32313;48.722;9.362;2022-07-01T02:14:17;3.87;;;3.00;;
46589;SDS011;32313;48.722;9.362;2022-07-01T02:16:43;3.77;;;3.47;;
46589;SDS011;32313;48.722;9.362;2022-07-01T02:19:09;4.07;;;3.33;;
46589;SDS011;32313;48.722;9.362;2022-07-01T02:21:34;4.10;;;3.70;;
46589;SDS011;32313;48.722;9.362;2022-07-01T02:24:00;3.70;;;3.40;;
46589;SDS011;32313;48.722;9.362;2022-07-01T02:26:26;5.07;;;3.63;;
46589;SDS011;32313;48.722;9.362;2022-07-01T02:28:52;3.90;;;3.60;;
46589;SDS011;32313;48.722;9.362;2022-07-01T02:31:17;4.93;;;3.73;;
46589;SDS011;32313;48.722;9.362;2022-07-01T02:33:43;4.37;;;4.00;;
46589;SDS011;32313;48.722;9.362;2022-07-01T02:36:09;4.67;;;4.27;;
46589;SDS011;32313;48.722;9.362;2022-07-01T02:38:35;4.90;;;4.40;;
46589;SDS011;32313;48.722;9.362;2022-07-01T02:41:00;6.20;;;4.67;;
46589;SDS011;32313;48.722;9.362;2022-07-01T02:43:26;5.23;;;4.40;;
46589;SDS011;32313;48.722;9.362;2022-07-01T02:45:52;7.37;;;5.30;;
46589;SDS011;32313;48.722;9.362;2022-07-01T02:48:17;5.47;;;4.97;;
46589;SDS011;32313;48.722;9.362;2022-07-01T02:50:43;5.90;;;5.30;;
46589;SDS011;32313;48.722;9.362;2022-07-01T02:53:09;5.60;;;5.00;;
46589;SDS011;32313;48.722;9.362;2022-07-01T02:55:34;6.13;;;5.20;;
46589;SDS011;32313;48.722;9.362;2022-07-01T02:58:00;6.00;;;5.40;;
46589;SDS011;32313;48.722;9.362;2022-07-01T03:00:29;5.97;;;5.07;;
46589;SDS011;32313;48.722;9.362;2022-07-01T03:02:55;7.37;;;4.93;;
46589;SDS011;32313;48.722;9.362;2022-07-01T03:05:21;5.60;;;5.10;;
46589;SDS011;32313;48.722;9.362;2022-07-01T03:07:47;5.20;;;4.77;;
46589;SDS011;32313;48.722;9.362;2022-07-01T03:10:12;6.20;;;5.50;;
46589;SDS011;32313;48.722;9.362;2022-07-01T03:12:38;5.50;;;5.00;;
46589;SDS011;32313;48.722;9.362;2022-07-01T03:15:09;4.80;;;4.40;;
46589;SDS011;32313;48.722;9.362;2022-07-01T03:17:36;5.30;;;4.80;;
46589;SDS011;32313;48.722;9.362;2022-07-01T03:20:03;4.63;;;4.20;;
46589;SDS011;32313;48.722;9.362;2022-07-01T03:22:31;4.80;;;4.30;;
46589;SDS011;32313;48.722;9.362;2022-07-01T03:24:57;4.90;;;4.50;;
46589;SDS011;32313;48.722;9.362;2022-07-01T03:27:24;4.77;;;4.37;;
46589;SDS011;32313;48.722;9.362;2022-07-01T03:29:50;5.10;;;4.50;;
46589;SDS011;32313;48.722;9.362;2022-07-01T03:32:16;5.20;;;4.70;;
46589;SDS011;32313;48.722;9.362;2022-07-01T03:34:46;4.63;;;4.23;;
46589;SDS011;32313;48.722;9.362;2022-07-01T03:37:15;4.67;;;4.23;;
46589;SDS011;32313;48.722;9.362;2022-07-01T03:39:42;6.27;;;5.37;;
46589;SDS011;32313;48.722;9.362;2022-07-01T03:42:08;6.13;;;4.80;;
46589;SDS011;32313;48.722;9.362;2022-07-01T03:44:35;5.80;;;4.70;;
46589;SDS011;32313;48.722;9.362;2022-07-01T03:47:01;5.83;;;5.23;;
46589;SDS011;32313;48.722;9.362;2022-07-01T03:49:27;8.20;;;5.97;;
46589;SDS011;32313;48.722;9.362;2022-07-01T03:51:54;5.93;;;5.33;;
46589;SDS011;32313;48.722;9.362;2022-07-01T03:54:20;6.73;;;5.83;;
46589;SDS011;32313;48.722;9.362;2022-07-01T03:57:01;9.90;;;6.30;;
46589;SDS011;32313;48.722;9.362;2022-07-01T03:59:33;8.33;;;5.73;;
46589;SDS011;32313;48.722;9.362;2022-07-01T04:02:04;6.10;;;5.13;;
46589;SDS011;32313;48.722;9.362;2022-07-01T04:04:31;6.13;;;5.50;;
46589;SDS011;32313;48.722;9.362;2022-07-01T04:07:01;5.40;;;4.90;;
46589;SDS011;32313;48.722;9.362;2022-07-01T04:09:29;6.80;;;5.00;;
46589;SDS011;32313;48.722;9.362;2022-07-01T04:11:56;5.97;;;5.17;;
46589;SDS011;32313;48.722;9.362;2022-07-01T04:14:22;8.40;;;5.63;;
46589;SDS011;32313;48.722;9.362;2022-07-01T04:16:51;8.03;;;5.53;;
46589;SDS011;32313;48.722;9.362;2022-07-01T04:19:18;6.97;;;5.17;;
46589;SDS011;32313;48.722;9.362;2022-07-01T04:21:44;6.60;;;5.20;;
46589;SDS011;32313;48.722;9.362;2022-07-01T04:24:30;5.13;;;4.50;;
46589;SDS011;32313;48.722;9.362;2022-07-01T04:26:57;5.03;;;4.53;;
46589;SDS011;32313;48.722;9.362;2022-07-01T04:29:24;7.40;;;4.90;;
46589;SDS011;32313;48.722;9.362;2022-07-01T04:31:50;4.77;;;4.37;;
46589;SDS011;32313;48.722;9.362;2022-07-01T04:34:15;5.57;;;4.13;;
46589;SDS011;32313;48.722;9.362;2022-07-01T04:36:41;6.37;;;4.90;;
46589;SDS011;32313;48.722;9.362;2022-07-01T04:39:07;4.40;;;4.00;;
46589;SDS011;32313;48.722;9.362;2022-07-01T04:41:33;5.63;;;4.23;;
46589;SDS011;32313;48.722;9.362;2022-07-01T04:44:20;4.33;;;3.93;;
46589;SDS011;32313;48.722;9.362;2022-07-01T04:46:46;5.13;;;4.07;;
46589;SDS011;32313;48.722;9.362;2022-07-01T04:49:12;4.60;;;4.20;;
46589;SDS011;32313;48.722;9.362;2022-07-01T04:51:38;5.83;;;4.37;;
46589;SDS011;32313;48.722;9.362;2022-07-01T04:54:04;7.43;;;4.43;;
46589;SDS011;32313;48.722;9.362;2022-07-01T04:56:31;4.37;;;4.03;;
46589;SDS011;32313;48.722;9.362;2022-07-01T04:58:58;4.70;;;4.30;;
46589;SDS011;32313;48.722;9.362;2022-07-01T05:01:25;4.67;;;4.27;;
46589;SDS011;32313;48.722;9.362;2022-07-01T05:03:51;6.80;;;4.80;;
46589;SDS011;32313;48.722;9.362;2022-07-01T05:06:17;5.70;;;4.00;;
46589;SDS011;32313;48.722;9.362;2022-07-01T05:08:43;5.00;;;4.37;;
46589;SDS011;32313;48.722;9.362;2022-07-01T05:11:09;4.87;;;4.37;;
46589;SDS011;32313;48.722;9.362;2022-07-01T05:13:35;5.03;;;4.53;;
46589;SDS011;32313;48.722;9.362;2022-07-01T05:16:00;5.20;;;4.20;;
46589;SDS011;32313;48.722;9.362;2022-07-01T05:18:27;6.67;;;4.97;;
46589;SDS011;32313;48.722;9.362;2022-07-01T05:21:11;4.53;;;4.13;;
46589;SDS011;32313;48.722;9.362;2022-07-01T05:23:55;5.93;;;4.80;;
46589;SDS011;32313;48.722;9.362;2022-07-01T05:26:21;4.47;;;4.07;;
46589;SDS011;32313;48.722;9.362;2022-07-01T05:28:48;5.07;;;4.33;;
46589;SDS011;32313;48.722;9.362;2022-07-01T05:31:13;6.03;;;5.17;;
46589;SDS011;32313;48.722;9.362;2022-07-01T05:33:39;6.23;;;5.27;;
46589;SDS011;32313;48.722;9.362;2022-07-01T05:36:05;5.40;;;4.90;;
46589;SDS011;32313;48.722;9.362;2022-07-01T05:38:31;5.57;;;4.50;;
46589;SDS011;32313;48.722;9.362;2022-07-01T05:40:57;5.67;;;4.20;;
46589;SDS011;32313;48.722;9.362;2022-07-01T05:43:24;5.07;;;4.40;;
46589;SDS011;32313;48.722;9.362;2022-07-01T05:45:50;4.67;;;4.27;;
46589;SDS011;32313;48.722;9.362;2022-07-01T05:48:16;5.40;;;4.90;;
46589;SDS011;32313;48.722;9.362;2022-07-01T05:50:42;6.10;;;5.17;;
46589;SDS011;32313;48.722;9.362;2022-07-01T05:53:10;6.97;;;5.10;;
46589;SDS011;32313;48.722;9.362;2022-07-01T05:55:36;6.47;;;5.23;;
46589;SDS011;32313;48.722;9.362;2022-07-01T05:58:02;7.80;;;5.90;;
46589;SDS011;32313;48.722;9.362;2022-07-01T06:00:28;6.97;;;5.57;;
46589;SDS011;32313;48.722;9.362;2022-07-01T06:02:54;6.53;;;5.60;;
46589;SDS011;32313;48.722;9.362;2022-07-01T06:05:19;8.23;;;5.67;;
46589;SDS011;32313;48.722;9.362;2022-07-01T06:07:45;6.47;;;5.87;;
46589;SDS011;32313;48.722;9.362;2022-07-01T06:10:11;12.07;;;6.33;;
46589;SDS011;32313;48.722;9.362;2022-07-01T06:12:37;8.47;;;5.63;;
46589;SDS011;32313;48.722;9.362;2022-07-01T06:15:04;8.53;;;5.97;;
46589;SDS011;32313;48.722;9.362;2022-07-01T06:17:33;6.67;;;5.73;;
46589;SDS011;32313;48.722;9.362;2022-07-01T06:20:03;7.40;;;6.30;;
46589;SDS011;32313;48.722;9.362;2022-07-01T06:22:29;6.73;;;5.80;;
46589;SDS011;32313;48.722;9.362;2022-07-01T06:24:55;8.37;;;6.80;;
46589;SDS011;32313;48.722;9.362;2022-07-01T06:27:21;7.63;;;5.90;;
46589;SDS011;32313;48.722;9.362;2022-07-01T06:29:47;9.40;;;6.70;;
46589;SDS011;32313;48.722;9.362;2022-07-01T06:32:12;7.47;;;6.23;;
46589;SDS011;32313;48.722;9.362;2022-07-01T06:34:38;7.97;;;6.27;;
46589;SDS011;32313;48.722;9.362;2022-07-01T06:37:04;7.70;;;6.43;;
46589;SDS011;32313;48.722;9.362;2022-07-01T06:39:30;8.40;;;7.37;;
46589;SDS011;32313;48.722;9.362;2022-07-01T06:41:56;8.30;;;6.10;;
46589;SDS011;32313;48.722;9.362;2022-07-01T06:44:22;7.00;;;5.90;;
46589;SDS011;32313;48.722;9.362;2022-07-01T06:46:47;6.67;;;5.93;;
46589;SDS011;32313;48.722;9.362;2022-07-01T06:49:13;7.27;;;6.40;;
46589;SDS011;32313;48.722;9.362;2022-07-01T06:51:39;6.90;;;6.20;;
46589;SDS011;32313;48.722;9.362;2022-07-01T06:54:05;7.13;;;6.13;;
46589;SDS011;32313;48.722;9.362;2022-07-01T06:56:31;6.50;;;5.53;;
46589;SDS011;32313;48.722;9.362;2022-07-01T06:58:56;7.10;;;6.40;;
46589;SDS011;32313;48.722;9.362;2022-07-01T07:01:22;8.30;;;6.10;;
46589;SDS011;32313;48.722;9.362;2022-07-01T07:03:49;6.80;;;6.20;;
46589;SDS011;32313;48.722;9.362;2022-07-01T07:06:14;6.30;;;5.70;;
46589;SDS011;32313;48.722;9.362;2022-07-01T07:08:40;6.73;;;6.03;;
46589;SDS011;32313;48.722;9.362;2022-07-01T07:11:06;7.27;;;6.57;;
46589;SDS011;32313;48.722;9.362;2022-07-01T07:13:34;6.77;;;5.77;;
46589;SDS011;32313;48.722;9.362;2022-07-01T07:16:03;5.90;;;5.30;;
46589;SDS011;32313;48.722;9.362;2022-07-01T07:18:29;6.50;;;5.80;;
46589;SDS011;32313;48.722;9.362;2022-07-01T07:20:55;7.37;;;6.53;;
46589;SDS011;32313;48.722;9.362;2022-07-01T07:23:20;10.57;;;7.20;;
46589;SDS011;32313;48.722;9.362;2022-07-01T07:25:47;7.97;;;6.87;;
46589;SDS011;32313;48.722;9.362;2022-07-01T07:28:13;9.03;;;7.67;;
46589;SDS011;32313;48.722;9.362;2022-07-01T07:30:42;8.20;;;7.30;;
46589;SDS011;32313;48.722;9.362;2022-07-01T07:33:07;9.40;;;7.63;;
46589;SDS011;32313;48.722;9.362;2022-07-01T07:35:33;9.80;;;8.30;;
46589;SDS011;32313;48.722;9.362;2022-07-01T07:37:59;8.97;;;8.07;;
46589;SDS011;32313;48.722;9.362;2022-07-01T07:40:24;7.47;;;6.70;;
46589;SDS011;32313;48.722;9.362;2022-07-01T07:42:50;7.87;;;6.70;;
46589;SDS011;32313;48.722;9.362;2022-07-01T07:45:16;7.73;;;6.67;;
46589;SDS011;32313;48.722;9.362;2022-07-01T07:47:48;7.73;;;5.63;;
46589;SDS011;32313;48.722;9.362;2022-07-01T07:50:15;7.70;;;5.93;;
46589;SDS011;32313;48.722;9.362;2022-07-01T07:52:41;8.20;;;6.13;;
46589;SDS011;32313;48.722;9.362;2022-07-01T07:55:07;5.83;;;5.33;;
46589;SDS011;32313;48.722;9.362;2022-07-01T07:57:38;5.40;;;4.90;;
46589;SDS011;32313;48.722;9.362;2022-07-01T08:00:06;5.63;;;4.80;;
46589;SDS011;32313;48.722;9.362;2022-07-01T08:02:40;5.40;;;4.80;;
46589;SDS011;32313;48.722;9.362;2022-07-01T08:05:07;5.47;;;4.87;;
46589;SDS011;32313;48.722;9.362;2022-07-01T08:07:35;4.67;;;4.00;;
46589;SDS011;32313;48.722;9.362;2022-07-01T08:10:06;5.27;;;4.77;;
46589;SDS011;32313;48.722;9.362;2022-07-01T08:12:33;4.37;;;3.83;;
46589;SDS011;32313;48.722;9.362;2022-07-01T08:14:59;4.90;;;4.50;;
46589;SDS011;32313;48.722;9.362;2022-07-01T08:17:25;4.60;;;4.00;;
46589;SDS011;32313;48.722;9.362;2022-07-01T08:19:51;4.67;;;4.27;;
46589;SDS011;32313;48.722;9.362;2022-07-01T08:22:17;5.30;;;4.83;;
46589;SDS011;32313;48.722;9.362;2022-07-01T08:24:44;5.07;;;4.67;;
46589;SDS011;32313;48.722;9.362;2022-07-01T08:27:10;6.13;;;5.53;;
46589;SDS011;32313;48.722;9.362;2022-07-01T08:29:38;5.97;;;5.37;;
46589;SDS011;32313;48.722;9.362;2022-07-01T08:32:04;5.53;;;4.93;;
46589;SDS011;32313;48.722;9.362;2022-07-01T08:34:30;5.27;;;4.77;;
46589;SDS011;32313;48.722;9.362;2022-07-01T08:36:56;4.87;;;4.47;;
46589;SDS011;32313;48.722;9.362;2022-07-01T08:39:22;4.80;;;4.40;;
46589;SDS011;32313;48.722;9.362;2022-07-01T08:41:48;5.13;;;4.63;;
46589;SDS011;32313;48.722;9.362;2022-07-01T08:44:13;4.70;;;4.30;;
46589;SDS011;32313;48.722;9.362;2022-07-01T08:46:39;5.67;;;5.10;;
46589;SDS011;32313;48.722;9.362;2022-07-01T08:49:06;5.60;;;4.87;;
46589;SDS011;32313;48.722;9.362;2022-07-01T08:51:32;4.67;;;4.27;;
46589;SDS011;32313;48.722;9.362;2022-07-01T08:53:58;5.10;;;4.70;;
46589;SDS011;32313;48.722;9.362;2022-07-01T08:56:24;5.73;;;5.17;;
46589;SDS011;32313;48.722;9.362;2022-07-01T08:59:21;6.03;;;5.40;;
46589;SDS011;32313;48.722;9.362;2022-07-01T09:01:58;6.50;;;5.00;;
46589;SDS011;32313;48.722;9.362;2022-07-01T09:04:26;5.10;;;4.60;;
46589;SDS011;32313;48.722;9.362;2022-07-01T09:06:56;6.27;;;5.03;;
46589;SDS011;32313;48.722;9.362;2022-07-01T09:09:33;5.23;;;4.80;;
46589;SDS011;32313;48.722;9.362;2022-07-01T09:12:03;5.17;;;4.70;;
46589;SDS011;32313;48.722;9.362;2022-07-01T09:14:31;5.20;;;4.70;;
46589;SDS011;32313;48.722;9.362;2022-07-01T09:17:00;5.23;;;4.80;;
46589;SDS011;32313;48.722;9.362;2022-07-01T09:19:29;6.83;;;5.00;;
46589;SDS011;32313;48.722;9.362;2022-07-01T09:21:57;4.63;;;4.23;;
46589;SDS011;32313;48.722;9.362;2022-07-01T09:24:32;4.50;;;4.10;;
46589;SDS011;32313;48.722;9.362;2022-07-01T09:27:08;5.13;;;4.73;;
46589;SDS011;32313;48.722;9.362;2022-07-01T09:29:40;3.70;;;3.40;;
46589;SDS011;32313;48.722;9.362;2022-07-01T09:32:12;3.63;;;3.33;;
46589;SDS011;32313;48.722;9.362;2022-07-01T09:37:06;3.60;;;3.37;;
46589;SDS011;32313;48.722;9.362;2022-07-01T09:39:42;3.73;;;3.43;;
46589;SDS011;32313;48.722;9.362;2022-07-01T09:42:13;4.03;;;3.73;;
46589;SDS011;32313;48.722;9.362;2022-07-01T09:44:58;4.77;;;3.90;;
46589;SDS011;32313;48.722;9.362;2022-07-01T09:47:32;5.83;;;4.20;;
46589;SDS011;32313;48.722;9.362;2022-07-01T09:50:01;5.17;;;4.67;;
46589;SDS011;32313;48.722;9.362;2022-07-01T09:52:28;4.47;;;4.07;;
46589;SDS011;32313;48.722;9.362;2022-07-01T09:54:54;8.60;;;5.03;;
46589;SDS011;32313;48.722;9.362;2022-07-01T09:57:20;7.53;;;5.30;;
46589;SDS011;32313;48.722;9.362;2022-07-01T09:59:47;8.33;;;5.07;;
46589;SDS011;32313;48.722;9.362;2022-07-01T10:02:13;7.10;;;5.10;;
46589;SDS011;32313;48.722;9.362;2022-07-01T10:04:46;7.90;;;5.80;;
46589;SDS011;32313;48.722;9.362;2022-07-01T10:13:05;8.90;;;6.30;;
46589;SDS011;32313;48.722;9.362;2022-07-01T10:15:33;7.07;;;6.37;;
46589;SDS011;32313;48.722;9.362;2022-07-01T10:17:59;7.33;;;6.30;;
46589;SDS011;32313;48.722;9.362;2022-07-01T10:20:26;6.63;;;6.03;;
46589;SDS011;32313;48.722;9.362;2022-07-01T10:23:03;6.47;;;5.53;;
46589;SDS011;32313;48.722;9.362;2022-07-01T10:25:33;6.20;;;5.60;;
46589;SDS011;32313;48.722;9.362;2022-07-01T10:28:13;6.30;;;4.97;;
46589;SDS011;32313;48.722;9.362;2022-07-01T10:31:02;6.10;;;5.00;;
46589;SDS011;32313;48.722;9.362;2022-07-01T10:36:12;5.33;;;4.67;;
46589;SDS011;32313;48.722;9.362;2022-07-01T10:44:33;5.70;;;4.93;;
46589;SDS011;32313;48.722;9.362;2022-07-01T10:46:56;5.10;;;4.70;;
46589;SDS011;32313;48.722;9.362;2022-07-01T10:52:10;4.23;;;3.83;;
46589;SDS011;32313;48.722;9.362;2022-07-01T10:54:46;4.20;;;3.80;;
46589;SDS011;32313;48.722;9.362;2022-07-01T10:59:44;4.50;;;4.10;;
46589;SDS011;32313;48.722;9.362;2022-07-01T11:04:49;3.67;;;3.37;;
46589;SDS011;32313;48.722;9.362;2022-07-01T11:07:16;3.50;;;3.20;;
46589;SDS011;32313;48.722;9.362;2022-07-01T11:09:42;4.23;;;3.53;;
46589;SDS011;32313;48.722;9.362;2022-07-01T11:12:08;3.20;;;3.00;;
46589;SDS011;32313;48.722;9.362;2022-07-01T11:14:38;3.70;;;3.30;;
46589;SDS011;32313;48.722;9.362;2022-07-01T11:17:06;3.57;;;3.27;;
46589;SDS011;32313;48.722;9.362;2022-07-01T11:19:33;3.40;;;3.10;;
46589;SDS011;32313;48.722;9.362;2022-07-01T11:21:59;3.10;;;2.60;;
46589;SDS011;32313;48.722;9.362;2022-07-01T11:24:26;2.53;;;2.33;;
46589;SDS011;32313;48.722;9.362;2022-07-01T11:26:55;3.17;;;2.37;;
46589;SDS011;32313;48.722;9.362;2022-07-01T11:29:32;2.10;;;2.00;;
46589;SDS011;32313;48.722;9.362;2022-07-01T11:31:58;2.67;;;2.10;;
46589;SDS011;32313;48.722;9.362;2022-07-01T11:34:26;2.60;;;2.03;;
46589;SDS011;32313;48.722;9.362;2022-07-01T11:36:53;2.77;;;1.93;;
46589;SDS011;32313;48.722;9.362;2022-07-01T11:39:45;1.87;;;1.70;;
46589;SDS011;32313;48.722;9.362;2022-07-01T11:42:10;3.63;;;2.30;;
46589;SDS011;32313;48.722;9.362;2022-07-01T11:44:43;2.07;;;1.80;;
46589;SDS011;32313;48.722;9.362;2022-07-01T11:47:11;2.00;;;1.70;;
46589;SDS011;32313;48.722;9.362;2022-07-01T11:49:47;2.07;;;1.70;;
46589;SDS011;32313;48.722;9.362;2022-07-01T11:52:14;3.40;;;2.33;;
46589;SDS011;32313;48.722;9.362;2022-07-01T11:54:41;3.40;;;2.50;;
46589;SDS011;32313;48.722;9.362;2022-07-01T11:57:13;2.77;;;1.93;;
46589;SDS011;32313;48.722;9.362;2022-07-01T11:59:41;3.07;;;1.97;;
46589;SDS011;32313;48.722;9.362;2022-07-01T12:02:10;2.30;;;2.10;;
46589;SDS011;32313;48.722;9.362;2022-07-01T12:04:37;2.30;;;2.10;;
46589;SDS011;32313;48.722;9.362;2022-07-01T12:07:04;2.70;;;2.50;;
46589;SDS011;32313;48.722;9.362;2022-07-01T12:09:31;4.10;;;2.53;;
46589;SDS011;32313;48.722;9.362;2022-07-01T12:11:57;3.13;;;2.17;;
46589;SDS011;32313;48.722;9.362;2022-07-01T12:14:25;3.03;;;2.73;;
46589;SDS011;32313;48.722;9.362;2022-07-01T12:17:04;3.53;;;2.50;;
46589;SDS011;32313;48.722;9.362;2022-07-01T12:19:38;2.87;;;2.67;;
46589;SDS011;32313;48.722;9.362;2022-07-01T12:22:09;2.73;;;2.47;;
46589;SDS011;32313;48.722;9.362;2022-07-01T12:24:40;3.33;;;2.80;;
46589;SDS011;32313;48.722;9.362;2022-07-01T12:27:07;3.30;;;2.33;;
46589;SDS011;32313;48.722;9.362;2022-07-01T12:32:05;2.40;;;2.20;;
46589;SDS011;32313;48.722;9.362;2022-07-01T12:34:41;2.70;;;2.50;;
46589;SDS011;32313;48.722;9.362;2022-07-01T12:37:19;2.60;;;2.40;;
46589;SDS011;32313;48.722;9.362;2022-07-01T12:39:55;3.50;;;2.30;;
46589;SDS011;32313;48.722;9.362;2022-07-01T12:42:44;2.43;;;1.97;;
46589;SDS011;32313;48.722;9.362;2022-07-01T12:45:14;3.20;;;2.40;;
46589;SDS011;32313;48.722;9.362;2022-07-01T12:47:45;2.80;;;2.00;;
46589;SDS011;32313;48.722;9.362;2022-07-01T12:55:25;2.10;;;1.90;;
46589;SDS011;32313;48.722;9.362;2022-07-01T12:57:55;2.93;;;1.90;;
46589;SDS011;32313;48.722;9.362;2022-07-01T13:00:24;2.80;;;1.70;;
46589;SDS011;32313;48.722;9.362;2022-07-01T13:02:55;2.17;;;1.77;;
46589;SDS011;32313;48.722;9.362;2022-07-01T13:05:24;3.83;;;1.80;;
46589;SDS011;32313;48.722;9.362;2022-07-01T13:07:50;2.20;;;1.60;;
46589;SDS011;32313;48.722;9.362;2022-07-01T13:10:18;3.80;;;1.90;;
46589;SDS011;32313;48.722;9.362;2022-07-01T13:12:44;2.27;;;1.60;;
46589;SDS011;32313;48.722;9.362;2022-07-01T13:15:14;2.87;;;1.60;;
46589;SDS011;32313;48.722;9.362;2022-07-01T13:17:40;4.73;;;2.03;;
46589;SDS011;32313;48.722;9.362;2022-07-01T13:20:07;4.30;;;1.73;;
46589;SDS011;32313;48.722;9.362;2022-07-01T13:22:33;3.23;;;1.90;;
46589;SDS011;32313;48.722;9.362;2022-07-01T13:24:59;4.97;;;2.20;;
46589;SDS011;32313;48.722;9.362;2022-07-01T13:27:26;1.83;;;1.40;;
46589;SDS011;32313;48.722;9.362;2022-07-01T13:29:51;1.93;;;1.63;;
46589;SDS011;32313;48.722;9.362;2022-07-01T13:32:18;2.53;;;1.70;;
46589;SDS011;32313;48.722;9.362;2022-07-01T13:34:43;1.93;;;1.40;;
46589;SDS011;32313;48.722;9.362;2022-07-01T13:37:09;3.13;;;1.80;;
46589;SDS011;32313;48.722;9.362;2022-07-01T13:39:35;2.30;;;1.40;;
46589;SDS011;32313;48.722;9.362;2022-07-01T13:42:01;1.37;;;1.23;;
46589;SDS011;32313;48.722;9.362;2022-07-01T13:44:27;2.23;;;1.40;;
46589;SDS011;32313;48.722;9.362;2022-07-01T13:46:53;2.03;;;1.30;;
46589;SDS011;32313;48.722;9.362;2022-07-01T13:49:19;1.53;;;1.20;;
46589;SDS011;32313;48.722;9.362;2022-07-01T13:51:45;1.10;;;1.00;;
46589;SDS011;32313;48.722;9.362;2022-07-01T13:54:10;2.23;;;1.00;;
46589;SDS011;32313;48.722;9.362;2022-07-01T13:56:36;1.33;;;1.20;;
46589;SDS011;32313;48.722;9.362;2022-07-01T13:59:06;2.23;;;1.43;;
46589;SDS011;32313;48.722;9.362;2022-07-01T14:01:33;1.70;;;1.47;;
46589;SDS011;32313;48.722;9.362;2022-07-01T14:04:00;1.20;;;1.10;;
46589;SDS011;32313;48.722;9.362;2022-07-01T14:06:26;1.70;;;1.30;;
46589;SDS011;32313;48.722;9.362;2022-07-01T14:08:52;1.30;;;1.20;;
46589;SDS011;32313;48.722;9.362;2022-07-01T14:11:18;1.10;;;1.00;;
46589;SDS011;32313;48.722;9.362;2022-07-01T14:13:43;1.20;;;1.10;;
46589;SDS011;32313;48.722;9.362;2022-07-01T14:16:09;2.03;;;1.30;;
46589;SDS011;32313;48.722;9.362;2022-07-01T14:18:35;1.73;;;1.30;;
46589;SDS011;32313;48.722;9.362;2022-07-01T14:21:02;1.73;;;1.10;;
46589;SDS011;32313;48.722;9.362;2022-07-01T14:23:29;2.43;;;1.33;;
46589;SDS011;32313;48.722;9.362;2022-07-01T14:25:55;1.33;;;1.23;;
46589;SDS011;32313;48.722;9.362;2022-07-01T14:28:21;2.13;;;1.13;;
46589;SDS011;32313;48.722;9.362;2022-07-01T14:30:48;1.60;;;1.20;;
46589;SDS011;32313;48.722;9.362;2022-07-01T14:33:15;2.00;;;1.20;;
46589;SDS011;32313;48.722;9.362;2022-07-01T14:35:42;5.23;;;1.30;;
46589;SDS011;32313;48.722;9.362;2022-07-01T14:38:08;1.70;;;1.20;;
46589;SDS011;32313;48.722;9.362;2022-07-01T14:40:35;8.07;;;2.00;;
46589;SDS011;32313;48.722;9.362;2022-07-01T14:43:01;7.47;;;1.87;;
46589;SDS011;32313;48.722;9.362;2022-07-01T14:45:27;5.37;;;1.70;;
46589;SDS011;32313;48.722;9.362;2022-07-01T14:47:53;2.93;;;1.30;;
46589;SDS011;32313;48.722;9.362;2022-07-01T14:50:20;4.27;;;1.47;;
46589;SDS011;32313;48.722;9.362;2022-07-01T14:52:45;3.07;;;1.27;;
46589;SDS011;32313;48.722;9.362;2022-07-01T14:55:12;1.60;;;0.90;;
46589;SDS011;32313;48.722;9.362;2022-07-01T14:57:38;1.10;;;0.98;;
46589;SDS011;32313;48.722;9.362;2022-07-01T15:00:04;1.27;;;1.10;;
46589;SDS011;32313;48.722;9.362;2022-07-01T15:02:31;1.83;;;1.00;;
46589;SDS011;32313;48.722;9.362;2022-07-01T15:04:57;1.13;;;1.00;;
46589;SDS011;32313;48.722;9.362;2022-07-01T15:07:22;3.80;;;1.20;;
46589;SDS011;32313;48.722;9.362;2022-07-01T15:09:53;2.15;;;1.20;;
46589;SDS011;32313;48.722;9.362;2022-07-01T15:12:21;2.50;;;1.07;;
46589;SDS011;32313;48.722;9.362;2022-07-01T15:14:48;3.13;;;1.27;;
46589;SDS011;32313;48.722;9.362;2022-07-01T15:17:13;1.23;;;1.00;;
46589;SDS011;32313;48.722;9.362;2022-07-01T15:19:39;1.20;;;1.10;;
46589;SDS011;32313;48.722;9.362;2022-07-01T15:22:05;0.87;;;0.87;;
46589;SDS011;32313;48.722;9.362;2022-07-01T15:24:36;1.13;;;1.00;;